Main page
METAR-TAF:

METAR-TAF

Airports :

Nouakchott–Oumtounsy International Airport

Nouakchott, Mauritania

latitude: 18-18-36N, longitude: 015-58-11W, elevation: 3 m

Current weather observation

The report was made 28 minutes ago, at 19:30 UTC
Wind 7 kt from the Northeast
Temperature 29°C
Humidity 11%
Pressure 1013 hPa
Visibility: 6000 m

METAR: GQNO 271930Z 04007KT 6000 NSC 29/M04 Q1013 NOSIG

Time: 19:58 (19:58 UTC)

Forecast

The report was made 2 hours and 58 minutes ago, at 17:00 UTC
Forecast valid from 27 at 18 UTC to 28 at 24 UTC
Wind 10 kt from the East
Visibility: 8000 m
Becoming
from 27 at 20 UTC to 27 at 23 UTC
Wind 10 kt from the North/Northeast
Becoming
from 28 at 08 UTC to 28 at 11 UTC
Wind 14 kt from the East
Probability 40% :
Temporary
from 28 at 10 UTC to 28 at 16 UTC
Visibility: 4000 m
Blowing sand

TAF: GQNO 271700Z 2718/2824 08010KT 8000 NSC BECMG 2720/2723 02010KT BECMG 2808/2811 08014KT PROB40 TEMPO 2810/2816 4000 BLSA

Weather observations and forecasts of more than 4000 airports (METAR and TAF reports).

The available stations are represented by yellow and red dots on the map.

Hover mouse over dot to see the name of the station.

Then click to see weather observations and forecasts.

To change the map : click on the green buttons with a black cross to zoom in, on the green button with a dash to zoom out, or on the green arrows for adjacent maps.


METAR-TAF: